Time;durP1;ratioP1;P1;durP2;ratioP2;P2;SDS_P1;SDS_P2;PMS_P1;PMS_P2;Temp;Humidity;BMP_temperature;BMP_pressure;BME280_temperature;BME280_humidity;BME280_pressure;Samples;Min_cycle;Max_cycle;Signal;HPM_P1;HPM_P2
2022/03/18 00:00:20;;;;;;;45.53;41.15;;;8.40;95.90;;;;;;5093176;28;20196;-71
2022/03/18 00:02:48;;;;;;;44.80;40.55;;;8.40;95.30;;;;;;5093137;28;20301;-72
2022/03/18 00:05:16;;;;;;;44.88;40.63;;;8.40;95.10;;;;;;5093127;28;20208;-72
2022/03/18 00:07:44;;;;;;;44.83;40.70;;;8.40;95.40;;;;;;5092748;28;20220;-72
2022/03/18 00:10:13;;;;;;;40.35;36.70;;;8.50;94.80;;;;;;5092760;28;20236;-72
2022/03/18 00:12:40;;;;;;;40.92;37.22;;;8.60;94.50;;;;;;5092940;28;20307;-72
2022/03/18 00:15:09;;;;;;;43.50;39.22;;;8.60;94.30;;;;;;5092888;28;20286;-71
2022/03/18 00:17:36;;;;;;;41.45;37.60;;;8.60;94.20;;;;;;5092991;28;20195;-71
2022/03/18 00:20:04;;;;;;;41.97;38.05;;;8.60;93.90;;;;;;5092820;28;20199;-71
2022/03/18 00:22:31;;;;;;;41.28;37.67;;;8.50;93.70;;;;;;5095056;28;20211;-71
2022/03/18 00:24:58;;;;;;;40.67;37.00;;;8.60;94.00;;;;;;5094103;28;20276;-71
2022/03/18 00:27:27;;;;;;;41.88;37.97;;;8.60;93.50;;;;;;5094272;28;20278;-71
2022/03/18 00:29:54;;;;;;;42.63;38.85;;;8.70;93.10;;;;;;5095137;28;20600;-71
2022/03/18 00:32:22;;;;;;;41.08;37.13;;;8.60;93.70;;;;;;5096156;28;20223;-71
2022/03/18 00:34:49;;;;;;;39.30;35.80;;;8.70;93.10;;;;;;5095995;28;20550;-71
2022/03/18 00:37:16;;;;;;;39.95;36.33;;;8.60;93.00;;;;;;5096845;28;20223;-71
2022/03/18 00:39:43;;;;;;;39.25;35.75;;;8.50;93.40;;;;;;5096380;28;20206;-71
2022/03/18 00:42:11;;;;;;;39.20;35.67;;;8.40;93.60;;;;;;5096496;28;20212;-71
2022/03/18 00:44:39;;;;;;;39.30;35.75;;;8.30;93.70;;;;;;5094475;28;20199;-71
2022/03/18 00:52:04;;;;;;;38.70;35.22;;;8.30;93.80;;;;;;5092882;28;20311;-71
2022/03/18 00:52:40;;;;;;;38.42;34.88;;;8.30;93.70;;;;;;5096532;28;20214;-72
2022/03/18 00:55:08;;;;;;;38.40;34.80;;;8.40;93.80;;;;;;5096709;28;20298;-71
2022/03/18 00:57:35;;;;;;;37.20;34.00;;;8.50;93.10;;;;;;5096590;28;20278;-72
2022/03/18 01:00:05;;;;;;;37.05;33.70;;;8.40;93.10;;;;;;5096090;28;20195;-72
2022/03/18 01:02:32;;;;;;;36.40;33.25;;;8.50;93.00;;;;;;5096403;28;20211;-72
2022/03/18 01:04:59;;;;;;;36.85;33.80;;;8.40;93.00;;;;;;5096444;28;20203;-72
2022/03/18 01:07:26;;;;;;;36.72;33.63;;;8.40;93.00;;;;;;5096825;28;20218;-71
2022/03/18 01:09:53;;;;;;;37.20;33.92;;;8.50;92.60;;;;;;5096298;28;20616;-71
2022/03/18 01:12:20;;;;;;;35.25;32.05;;;8.50;92.50;;;;;;5096294;28;20221;-72
2022/03/18 01:14:46;;;;;;;36.83;33.83;;;8.60;92.50;;;;;;5096183;28;20203;-72
2022/03/18 01:17:15;;;;;;;36.88;33.67;;;8.50;92.60;;;;;;5096237;28;20192;-72
2022/03/18 01:19:42;;;;;;;35.80;32.65;;;8.40;93.30;;;;;;5096010;28;20199;-72
2022/03/18 01:22:10;;;;;;;36.30;33.25;;;8.50;92.80;;;;;;5096091;28;20698;-72
2022/03/18 01:24:37;;;;;;;35.90;32.72;;;8.50;92.50;;;;;;5096147;28;20222;-72
2022/03/18 01:27:05;;;;;;;35.90;32.92;;;8.60;92.30;;;;;;5095889;28;20216;-71
2022/03/18 01:29:32;;;;;;;36.75;33.65;;;8.60;92.10;;;;;;5095768;28;20204;-72
2022/03/18 01:31:59;;;;;;;34.75;31.90;;;8.60;92.20;;;;;;5095958;28;20746;-72
2022/03/18 01:34:27;;;;;;;36.20;33.17;;;8.60;91.80;;;;;;5095873;28;20684;-72
2022/03/18 01:36:54;;;;;;;33.03;30.42;;;8.60;92.00;;;;;;5095889;28;20189;-71
2022/03/18 01:39:22;;;;;;;35.53;32.53;;;8.60;91.50;;;;;;5095536;28;20685;-72
2022/03/18 01:41:50;;;;;;;35.35;32.15;;;8.50;91.60;;;;;;5095579;28;20223;-72
2022/03/18 01:44:18;;;;;;;35.00;32.00;;;8.50;91.60;;;;;;5095858;28;20200;-72
2022/03/18 01:46:45;;;;;;;35.30;32.30;;;8.70;91.10;;;;;;5095580;28;20221;-72
2022/03/18 01:49:12;;;;;;;34.55;31.65;;;8.70;90.80;;;;;;5095305;28;20217;-71
2022/03/18 01:51:41;;;;;;;34.58;31.67;;;8.60;91.20;;;;;;5095509;28;20219;-72
2022/03/18 01:56:53;;;;;;;35.05;31.70;;;8.50;91.60;;;;;;5095569;28;20191;-72
2022/03/18 01:59:20;;;;;;;34.30;31.50;;;8.60;91.30;;;;;;5095102;28;20207;-71
2022/03/18 02:01:47;;;;;;;34.17;31.27;;;8.60;90.80;;;;;;5094585;28;20226;-71
2022/03/18 02:04:14;;;;;;;33.90;31.10;;;8.70;90.40;;;;;;5095315;28;20205;-72
2022/03/18 02:06:43;;;;;;;34.95;31.88;;;8.70;90.30;;;;;;5096579;28;20582;-71
2022/03/18 02:09:10;;;;;;;34.13;31.23;;;8.60;90.10;;;;;;5099409;28;20197;-71
2022/03/18 02:11:38;;;;;;;33.08;30.40;;;8.60;90.20;;;;;;5099822;28;20223;-71
2022/03/18 02:14:05;;;;;;;35.35;32.25;;;8.60;90.50;;;;;;5100406;28;20200;-71
2022/03/18 02:16:32;;;;;;;35.45;32.50;;;8.70;90.00;;;;;;5100262;28;20196;-71
2022/03/18 02:18:59;;;;;;;34.40;31.35;;;8.60;90.30;;;;;;5099368;28;20202;-71
2022/03/18 02:21:29;;;;;;;34.17;31.35;;;8.60;90.10;;;;;;5098423;28;20199;-71
2022/03/18 02:23:58;;;;;;;34.00;31.30;;;8.60;90.00;;;;;;5099429;28;20204;-71
2022/03/18 02:26:25;;;;;;;35.25;32.15;;;8.60;90.00;;;;;;5098492;28;20245;-71
2022/03/18 02:28:52;;;;;;;35.70;32.63;;;8.50;90.10;;;;;;5096593;28;20202;-71
2022/03/18 02:31:20;;;;;;;33.13;30.52;;;8.50;90.50;;;;;;5094614;28;20208;-71
2022/03/18 02:33:47;;;;;;;33.88;31.08;;;8.40;90.40;;;;;;5094757;28;20200;-72
2022/03/18 02:36:13;;;;;;;35.00;32.08;;;8.50;90.60;;;;;;5094802;28;20203;-72
2022/03/18 02:38:41;;;;;;;35.13;32.20;;;8.50;90.30;;;;;;5094689;28;20207;-71
2022/03/18 02:41:11;;;;;;;35.38;32.33;;;8.40;90.10;;;;;;5094565;28;20193;-71
2022/03/18 02:43:39;;;;;;;34.15;31.33;;;8.40;90.20;;;;;;5094733;28;20246;-72
2022/03/18 02:46:06;;;;;;;34.75;31.77;;;8.40;90.30;;;;;;5094483;28;20666;-72
2022/03/18 02:48:33;;;;;;;32.30;29.48;;;8.40;89.90;;;;;;5094366;28;20220;-71
2022/03/18 02:51:00;;;;;;;34.22;31.42;;;8.30;90.10;;;;;;5094132;28;20192;-72
2022/03/18 02:53:26;;;;;;;34.05;31.25;;;8.20;90.70;;;;;;5094369;28;20701;-72
2022/03/18 02:55:54;;;;;;;33.67;30.98;;;8.20;91.20;;;;;;5094268;28;20196;-71
2022/03/18 02:58:23;;;;;;;34.25;31.55;;;8.30;90.50;;;;;;5094212;28;20200;-72
2022/03/18 03:00:50;;;;;;;35.03;32.30;;;8.30;89.90;;;;;;5094041;28;20654;-71
2022/03/18 03:03:17;;;;;;;34.95;32.05;;;8.40;90.20;;;;;;5094125;28;20217;-72
2022/03/18 03:08:28;;;;;;;34.63;31.60;;;8.50;90.10;;;;;;5094026;28;20234;-72
2022/03/18 03:10:56;;;;;;;35.40;32.13;;;8.40;90.00;;;;;;5093841;28;20196;-71
2022/03/18 03:13:24;;;;;;;34.70;31.88;;;8.40;90.00;;;;;;5093941;28;20220;-71
2022/03/18 03:15:51;;;;;;;34.50;31.70;;;8.30;89.90;;;;;;5093886;28;20197;-72
2022/03/18 03:18:19;;;;;;;35.78;32.67;;;8.30;89.90;;;;;;5093969;28;20196;-72
2022/03/18 03:20:46;;;;;;;34.38;31.48;;;8.30;90.10;;;;;;5093741;28;20204;-72
2022/03/18 03:23:13;;;;;;;35.25;32.25;;;8.30;89.90;;;;;;5093900;28;20302;-71
2022/03/18 03:25:40;;;;;;;34.13;31.13;;;8.40;90.00;;;;;;5093659;28;20206;-72
2022/03/18 03:28:07;;;;;;;34.53;31.95;;;8.50;89.00;;;;;;5093621;28;20223;-72
2022/03/18 03:30:35;;;;;;;35.22;32.35;;;8.50;89.00;;;;;;5093407;28;20203;-72
2022/03/18 03:33:02;;;;;;;34.03;31.02;;;8.50;89.20;;;;;;5093651;28;20307;-71
2022/03/18 03:35:29;;;;;;;33.67;30.92;;;8.40;89.50;;;;;;5093823;28;20645;-72
2022/03/18 03:37:55;;;;;;;35.50;32.30;;;8.30;89.50;;;;;;5093649;28;20199;-72
2022/03/18 03:40:24;;;;;;;35.50;32.28;;;8.30;89.80;;;;;;5093330;28;20561;-72
2022/03/18 03:42:52;;;;;;;35.47;32.55;;;8.40;89.70;;;;;;5093373;28;20251;-72
2022/03/18 03:45:19;;;;;;;33.40;30.40;;;8.40;88.90;;;;;;5093429;28;20191;-72
2022/03/18 03:47:47;;;;;;;34.80;31.95;;;8.30;89.40;;;;;;5093228;28;20723;-72
2022/03/18 03:50:15;;;;;;;35.08;32.10;;;8.20;89.80;;;;;;5092946;28;20210;-72
2022/03/18 03:52:42;;;;;;;35.40;32.30;;;8.30;89.70;;;;;;5093183;28;20644;-72
2022/03/18 03:55:11;;;;;;;35.28;32.47;;;8.30;89.70;;;;;;5092945;28;20206;-72
2022/03/18 03:57:38;;;;;;;33.22;29.98;;;8.40;89.10;;;;;;5093218;28;20192;-72
2022/03/18 04:00:07;;;;;;;34.58;31.63;;;8.30;88.70;;;;;;5093032;28;20584;-72
2022/03/18 04:02:34;;;;;;;34.05;31.15;;;8.30;89.10;;;;;;5093140;28;20212;-72
2022/03/18 04:05:02;;;;;;;36.03;32.85;;;8.20;89.20;;;;;;5093054;28;20193;-72
2022/03/18 04:07:29;;;;;;;36.10;33.30;;;8.30;89.40;;;;;;5092823;28;20254;-72
2022/03/18 04:09:55;;;;;;;34.38;31.55;;;8.20;89.50;;;;;;5092861;28;20291;-72
2022/03/18 04:12:22;;;;;;;36.58;33.47;;;8.20;89.30;;;;;;5092884;28;20312;-71
2022/03/18 04:14:49;;;;;;;36.22;33.33;;;8.30;89.20;;;;;;5093016;28;20196;-71
2022/03/18 04:17:16;;;;;;;36.75;33.72;;;8.20;88.90;;;;;;5092901;28;20248;-71
2022/03/18 04:19:43;;;;;;;38.00;34.97;;;8.20;88.90;;;;;;5092680;28;20204;-71
2022/03/18 04:22:11;;;;;;;36.75;33.60;;;8.30;88.70;;;;;;5092852;28;20726;-72
2022/03/18 04:24:38;;;;;;;37.70;34.67;;;8.30;88.50;;;;;;5092519;28;20206;-71
2022/03/18 04:27:05;;;;;;;35.20;32.40;;;8.20;89.10;;;;;;5092694;28;20209;-71
2022/03/18 04:29:32;;;;;;;37.97;34.97;;;8.30;88.60;;;;;;5092682;28;20223;-72
2022/03/18 04:31:59;;;;;;;37.70;34.50;;;8.40;88.30;;;;;;5092748;28;20213;-72
2022/03/18 04:34:26;;;;;;;38.35;35.15;;;8.40;88.30;;;;;;5092655;28;20196;-72
2022/03/18 04:36:53;;;;;;;34.72;31.63;;;8.50;88.60;;;;;;5092700;28;20649;-71
2022/03/18 04:39:21;;;;;;;35.22;32.22;;;8.40;88.30;;;;;;5092481;28;20187;-71
2022/03/18 04:41:48;;;;;;;36.10;33.10;;;8.50;87.60;;;;;;5092693;28;20216;-72
2022/03/18 04:44:15;;;;;;;34.42;31.63;;;8.50;87.70;;;;;;5092615;28;20286;-72
2022/03/18 04:46:43;;;;;;;35.78;32.88;;;8.40;87.60;;;;;;5092617;28;20197;-72
2022/03/18 04:49:10;;;;;;;37.88;34.50;;;8.40;88.10;;;;;;5092145;28;20215;-71
2022/03/18 04:51:37;;;;;;;36.75;33.75;;;8.50;87.40;;;;;;5092536;28;20247;-72
2022/03/18 04:54:04;;;;;;;36.75;33.83;;;8.30;87.30;;;;;;5092422;28;20195;-72
2022/03/18 04:59:18;;;;;;;37.25;34.05;;;8.40;87.90;;;;;;5092403;28;20502;-72
2022/03/18 05:01:45;;;;;;;36.63;33.55;;;8.40;87.90;;;;;;5092321;28;20216;-72
2022/03/18 05:04:12;;;;;;;38.08;34.78;;;8.30;88.10;;;;;;5092475;28;20295;-72
2022/03/18 05:06:39;;;;;;;38.95;35.63;;;8.40;87.60;;;;;;5092404;28;20289;-72
2022/03/18 05:09:06;;;;;;;38.05;34.95;;;8.40;87.20;;;;;;5092460;28;20308;-72
2022/03/18 05:11:34;;;;;;;38.17;35.05;;;8.40;87.00;;;;;;5092378;28;20215;-72
2022/03/18 05:14:01;;;;;;;38.63;35.53;;;8.30;87.10;;;;;;5092461;28;20231;-72
2022/03/18 05:16:28;;;;;;;37.30;34.10;;;8.30;87.30;;;;;;5092562;28;20282;-71
2022/03/18 05:18:55;;;;;;;39.97;36.20;;;8.40;86.90;;;;;;5092289;28;20232;-72
2022/03/18 05:21:22;;;;;;;37.67;34.53;;;8.40;86.80;;;;;;5092215;28;20195;-71
2022/03/18 05:23:49;;;;;;;38.00;34.50;;;8.40;86.80;;;;;;5092467;28;20286;-72
2022/03/18 05:26:16;;;;;;;38.63;35.40;;;8.30;87.10;;;;;;5092276;28;20565;-72
2022/03/18 05:28:46;;;;;;;36.42;33.33;;;8.30;87.00;;;;;;5092000;28;20227;-72
2022/03/18 05:31:13;;;;;;;41.00;37.40;;;8.30;87.50;;;;;;5092013;28;20208;-72
2022/03/18 05:33:40;;;;;;;40.60;37.00;;;8.20;87.70;;;;;;5092436;28;20195;-72
2022/03/18 05:36:07;;;;;;;36.45;33.35;;;8.20;87.80;;;;;;5095417;28;20206;-72
2022/03/18 05:38:34;;;;;;;39.88;36.78;;;8.10;88.20;;;;;;5095940;28;20199;-71
2022/03/18 05:41:00;;;;;;;40.10;36.60;;;8.10;88.20;;;;;;5095678;28;20200;-72
2022/03/18 05:43:27;;;;;;;37.85;34.42;;;8.10;88.40;;;;;;5095788;28;20219;-72
2022/03/18 05:45:56;;;;;;;38.58;35.22;;;8.20;88.00;;;;;;5095759;28;20195;-72
2022/03/18 05:48:23;;;;;;;37.58;34.42;;;8.30;87.60;;;;;;5095430;28;20652;-72
2022/03/18 05:50:51;;;;;;;37.03;33.75;;;8.10;87.70;;;;;;5095181;28;20578;-72
2022/03/18 05:53:18;;;;;;;37.03;33.90;;;8.00;88.30;;;;;;5095570;28;20224;-72
2022/03/18 05:58:30;;;;;;;38.05;34.65;;;8.10;88.30;;;;;;5095469;28;20259;-72
2022/03/18 06:00:59;;;;;;;36.20;33.10;;;8.20;87.60;;;;;;5095239;28;20283;-72
2022/03/18 06:03:26;;;;;;;37.80;34.58;;;8.20;87.80;;;;;;5095299;28;20226;-72
2022/03/18 06:05:53;;;;;;;39.28;35.83;;;8.20;87.60;;;;;;5095378;28;20669;-72
2022/03/18 06:14:00;;;;;;;38.85;35.50;;;8.20;87.50;;;;;;5033044;28;20197;-72
2022/03/18 06:16:28;;;;;;;41.28;37.63;;;8.20;87.90;;;;;;5079567;28;20282;-71
2022/03/18 06:18:55;;;;;;;39.50;35.67;;;8.30;86.90;;;;;;5095003;28;20274;-71
2022/03/18 06:21:22;;;;;;;39.55;35.75;;;8.30;86.80;;;;;;5094906;28;20674;-71
2022/03/18 06:23:49;;;;;;;39.75;36.47;;;8.40;86.60;;;;;;5095137;28;20293;-71
2022/03/18 06:26:16;;;;;;;40.53;36.45;;;8.40;86.30;;;;;;5095036;28;20282;-71
2022/03/18 06:28:43;;;;;;;38.58;35.28;;;8.50;86.00;;;;;;5094784;28;20218;-71
2022/03/18 06:31:10;;;;;;;42.58;38.38;;;8.50;85.70;;;;;;5094694;28;20282;-71
2022/03/18 06:33:43;;;;;;;42.30;38.60;;;8.50;85.90;;;;;;5095048;28;20221;-70
2022/03/18 06:36:10;;;;;;;41.13;37.28;;;8.40;85.90;;;;;;5094854;28;20188;-71
2022/03/18 06:38:37;;;;;;;42.05;38.05;;;8.40;85.80;;;;;;5094732;28;20193;-71
2022/03/18 06:41:04;;;;;;;41.22;36.95;;;8.50;85.40;;;;;;5094513;28;20203;-71
2022/03/18 06:43:31;;;;;;;40.50;36.70;;;8.40;85.60;;;;;;5094400;28;20212;-71
2022/03/18 06:45:58;;;;;;;42.53;38.70;;;8.50;85.70;;;;;;5094061;28;20673;-70
2022/03/18 06:48:25;;;;;;;39.15;35.90;;;8.50;85.80;;;;;;5094318;28;20231;-70
2022/03/18 06:50:53;;;;;;;40.92;37.22;;;8.50;86.10;;;;;;5094071;28;20203;-71
2022/03/18 06:53:20;;;;;;;41.47;37.88;;;8.40;86.00;;;;;;5094361;28;20253;-71
2022/03/18 06:55:47;;;;;;;41.35;37.65;;;8.40;86.30;;;;;;5094202;28;20210;-71
2022/03/18 06:58:14;;;;;;;39.88;36.33;;;8.50;85.80;;;;;;5094134;28;20561;-71
2022/03/18 07:00:41;;;;;;;42.22;38.22;;;8.60;85.40;;;;;;5094157;28;20196;-71
2022/03/18 07:03:08;;;;;;;42.40;38.30;;;8.60;85.20;;;;;;5094177;28;20254;-71
2022/03/18 07:05:35;;;;;;;45.10;41.17;;;8.60;85.30;;;;;;5094112;28;20200;-71
2022/03/18 07:08:04;;;;;;;43.85;39.75;;;8.60;85.00;;;;;;5093827;28;20206;-71
2022/03/18 07:10:31;;;;;;;44.10;39.90;;;8.70;85.40;;;;;;5094035;28;20581;-71
2022/03/18 07:12:57;;;;;;;44.38;40.38;;;8.60;85.10;;;;;;5093850;28;20216;-71
2022/03/18 07:15:24;;;;;;;43.75;39.67;;;8.70;84.90;;;;;;5093952;28;20208;-71
2022/03/18 07:17:59;;;;;;;43.38;39.15;;;8.70;84.70;;;;;;5093961;28;20743;-71
2022/03/18 07:20:26;;;;;;;45.50;41.15;;;8.70;84.90;;;;;;5093732;28;20286;-71
2022/03/18 07:23:03;;;;;;;49.13;44.17;;;8.90;84.50;;;;;;5093832;28;20779;-71
2022/03/18 07:25:30;;;;;;;45.15;40.80;;;9.00;83.80;;;;;;5093889;28;20203;-71
2022/03/18 07:27:57;;;;;;;46.58;42.25;;;9.00;83.90;;;;;;5093586;28;20206;-71
2022/03/18 07:30:24;;;;;;;48.47;44.05;;;9.10;83.30;;;;;;5093399;28;20282;-71
2022/03/18 07:32:51;;;;;;;46.03;41.40;;;9.00;83.80;;;;;;5093519;28;20215;-71
2022/03/18 07:35:19;;;;;;;47.00;42.30;;;9.10;82.80;;;;;;5093647;28;20279;-71
2022/03/18 07:37:47;;;;;;;49.78;45.05;;;9.10;83.30;;;;;;5093392;28;20208;-71
2022/03/18 07:40:16;;;;;;;46.40;41.97;;;9.10;83.20;;;;;;5092879;28;20200;-71
2022/03/18 07:42:44;;;;;;;50.05;45.25;;;9.20;82.60;;;;;;5093513;28;20227;-71
2022/03/18 07:45:12;;;;;;;50.97;46.22;;;9.30;82.20;;;;;;5093388;28;20196;-71
2022/03/18 07:47:39;;;;;;;49.15;44.58;;;9.20;82.80;;;;;;5093377;28;20198;-72
2022/03/18 07:50:07;;;;;;;50.70;45.70;;;9.20;82.60;;;;;;5092827;28;20221;-71
2022/03/18 07:52:34;;;;;;;51.45;46.55;;;9.30;82.30;;;;;;5093284;28;20212;-71
2022/03/18 07:55:01;;;;;;;50.75;45.67;;;9.40;81.80;;;;;;5092925;28;20227;-71
2022/03/18 07:57:30;;;;;;;50.60;45.85;;;9.30;82.30;;;;;;5093075;28;20747;-71
2022/03/18 07:59:56;;;;;;;53.70;48.28;;;9.40;81.80;;;;;;5092567;28;20195;-71
2022/03/18 08:02:23;;;;;;;52.45;47.30;;;9.50;81.20;;;;;;5093158;28;20217;-71
2022/03/18 08:04:52;;;;;;;51.88;46.85;;;9.50;81.20;;;;;;5093089;28;20550;-71
2022/03/18 08:07:20;;;;;;;54.65;49.25;;;9.50;81.10;;;;;;5092960;28;20209;-71
2022/03/18 08:09:47;;;;;;;51.50;46.40;;;9.60;81.20;;;;;;5092843;28;20230;-71
2022/03/18 08:12:14;;;;;;;55.70;50.15;;;9.50;80.90;;;;;;5093055;28;20217;-71
2022/03/18 08:14:43;;;;;;;55.33;49.83;;;9.40;81.50;;;;;;5093052;28;20193;-71
2022/03/18 08:17:10;;;;;;;57.63;51.92;;;9.40;80.90;;;;;;5092982;28;20207;-71
2022/03/18 08:19:37;;;;;;;53.78;48.03;;;9.40;80.40;;;;;;5092719;28;20189;-71
2022/03/18 08:22:04;;;;;;;53.67;48.58;;;9.30;80.90;;;;;;5092820;28;20219;-71
2022/03/18 08:24:32;;;;;;;55.40;49.90;;;9.20;81.40;;;;;;5092912;28;20726;-71
2022/03/18 08:26:59;;;;;;;55.20;49.65;;;9.10;81.70;;;;;;5092810;28;20209;-71
2022/03/18 08:29:26;;;;;;;57.22;51.72;;;9.30;81.20;;;;;;5092490;28;20215;-71
2022/03/18 08:31:54;;;;;;;54.28;49.00;;;9.30;81.10;;;;;;5092706;28;20219;-71
2022/03/18 08:34:21;;;;;;;53.28;48.15;;;9.30;80.80;;;;;;5092620;28;20284;-71
2022/03/18 08:36:48;;;;;;;53.47;48.22;;;9.30;80.70;;;;;;5092842;28;20653;-71
2022/03/18 08:39:15;;;;;;;56.40;50.85;;;9.50;80.60;;;;;;5092491;28;20204;-71
2022/03/18 08:41:42;;;;;;;52.88;47.60;;;9.50;79.80;;;;;;5092618;28;20589;-71
2022/03/18 08:44:09;;;;;;;51.50;46.67;;;9.60;79.80;;;;;;5092594;28;20653;-71
2022/03/18 08:46:36;;;;;;;52.23;47.33;;;9.80;78.80;;;;;;5092542;28;20464;-71
2022/03/18 08:49:04;;;;;;;53.07;48.13;;;9.90;78.30;;;;;;5092186;28;20486;-71
2022/03/18 08:51:31;;;;;;;53.13;48.17;;;10.00;77.70;;;;;;5092533;28;20539;-71
2022/03/18 08:53:58;;;;;;;53.17;48.10;;;10.20;76.90;;;;;;5092551;28;20974;-71
2022/03/18 08:56:25;;;;;;;54.27;49.20;;;10.10;76.60;;;;;;5092282;28;20482;-71
2022/03/18 08:58:52;;;;;;;54.10;48.90;;;10.00;77.40;;;;;;5092515;28;20479;-71
2022/03/18 09:01:19;;;;;;;53.17;48.37;;;10.10;76.90;;;;;;5092178;28;20960;-71
2022/03/18 09:03:47;;;;;;;55.37;50.00;;;10.00;76.90;;;;;;5092422;28;20978;-71
2022/03/18 09:06:15;;;;;;;55.13;50.07;;;9.80;77.30;;;;;;5092331;28;20451;-71
2022/03/18 09:08:42;;;;;;;54.42;49.58;;;9.70;77.40;;;;;;5092386;28;21054;-71
2022/03/18 09:11:09;;;;;;;51.83;46.95;;;9.80;77.60;;;;;;5095708;28;20289;-71
2022/03/18 09:13:36;;;;;;;51.80;46.80;;;9.70;77.50;;;;;;5096184;28;20225;-71
2022/03/18 09:16:04;;;;;;;51.70;46.97;;;9.70;77.70;;;;;;5096155;28;20457;-71
2022/03/18 09:18:31;;;;;;;48.10;43.77;;;9.70;77.70;;;;;;5096146;28;20488;-71
2022/03/18 09:20:58;;;;;;;50.95;46.65;;;9.90;76.90;;;;;;5096107;28;20461;-71
2022/03/18 09:23:26;;;;;;;48.20;43.80;;;10.20;75.10;;;;;;5096151;28;20245;-71
2022/03/18 09:25:53;;;;;;;50.73;45.63;;;10.20;74.90;;;;;;5096213;28;20202;-71
2022/03/18 09:28:21;;;;;;;48.15;43.55;;;10.10;75.10;;;;;;5095954;28;20539;-71
2022/03/18 09:30:48;;;;;;;48.40;43.73;;;9.90;75.80;;;;;;5095793;28;20629;-71
2022/03/18 09:33:15;;;;;;;47.37;43.10;;;10.10;74.80;;;;;;5096288;28;20461;-71
2022/03/18 09:35:44;;;;;;;49.27;44.47;;;10.20;74.60;;;;;;5095731;28;20460;-71
2022/03/18 09:38:10;;;;;;;46.83;42.47;;;10.20;74.50;;;;;;5095834;28;20786;-71
2022/03/18 09:40:41;;;;;;;48.13;43.33;;;10.30;74.30;;;;;;5095596;28;21074;-71
2022/03/18 09:43:09;;;;;;;46.27;41.87;;;10.30;74.50;;;;;;5095780;28;20472;-71
2022/03/18 09:45:38;;;;;;;50.08;45.15;;;10.20;74.50;;;;;;5095651;28;20451;-71
2022/03/18 09:48:07;;;;;;;47.10;42.60;;;10.40;74.30;;;;;;5095656;28;20687;-71
2022/03/18 09:50:35;;;;;;;47.20;42.90;;;10.10;74.60;;;;;;5095209;28;20584;-71
2022/03/18 09:53:03;;;;;;;48.67;44.10;;;9.90;74.60;;;;;;5095475;28;20476;-71
2022/03/18 09:55:31;;;;;;;49.30;44.97;;;10.10;74.20;;;;;;5095341;28;20517;-71
2022/03/18 09:57:59;;;;;;;46.57;42.17;;;10.20;74.10;;;;;;5095377;28;20956;-71
2022/03/18 10:00:26;;;;;;;48.17;43.37;;;10.20;74.20;;;;;;5095302;28;20442;-72
2022/03/18 10:03:08;;;;;;;48.83;44.53;;;10.20;74.40;;;;;;5095384;28;21009;-72
2022/03/18 10:05:35;;;;;;;48.33;43.93;;;10.50;73.60;;;;;;5095322;28;20202;-72
2022/03/18 10:08:02;;;;;;;47.58;43.22;;;10.50;72.70;;;;;;5095141;28;20972;-72
2022/03/18 10:10:29;;;;;;;46.27;41.77;;;10.40;72.80;;;;;;5095004;28;20242;-72
2022/03/18 10:13:03;;;;;;;51.80;47.00;;;10.40;73.30;;;;;;5095150;28;20554;-72
2022/03/18 10:15:30;;;;;;;48.15;43.45;;;10.70;72.20;;;;;;5095275;28;20821;-72
2022/03/18 10:17:59;;;;;;;49.83;44.90;;;10.50;72.30;;;;;;5095009;28;20245;-72
2022/03/18 10:20:32;;;;;;;50.20;45.50;;;10.40;73.30;;;;;;5094615;28;20521;-72
2022/03/18 10:23:02;;;;;;;49.77;45.30;;;10.80;73.00;;;;;;5094412;28;20480;-72
2022/03/18 10:25:41;;;;;;;48.30;43.90;;;11.00;72.10;;;;;;5094966;28;20542;-72
2022/03/18 10:28:11;;;;;;;48.23;43.43;;;11.10;70.50;;;;;;5094917;28;20490;-72
2022/03/18 10:30:38;;;;;;;48.20;43.77;;;11.10;70.70;;;;;;5094629;28;20488;-72
2022/03/18 10:33:06;;;;;;;51.30;46.30;;;11.00;70.90;;;;;;5094709;28;20481;-72
2022/03/18 10:38:33;;;;;;;47.57;43.40;;;11.20;70.10;;;;;;5094685;28;20434;-72
2022/03/18 10:41:05;;;;;;;48.50;44.10;;;11.20;70.30;;;;;;5094444;28;20784;-72
2022/03/18 10:43:51;;;;;;;51.53;46.53;;;11.00;70.80;;;;;;5094660;28;20482;-72
2022/03/18 10:46:19;;;;;;;52.03;47.20;;;11.00;70.90;;;;;;5094656;28;20463;-72
2022/03/18 10:49:01;;;;;;;50.53;45.40;;;11.30;69.70;;;;;;5094678;28;20447;-71
2022/03/18 10:51:28;;;;;;;50.80;45.77;;;11.40;69.30;;;;;;5094310;28;20463;-71
2022/03/18 10:53:57;;;;;;;50.27;45.57;;;11.30;69.30;;;;;;5094226;28;20544;-72
2022/03/18 10:56:24;;;;;;;52.13;47.10;;;11.30;69.50;;;;;;5094316;28;20945;-72
2022/03/18 10:58:52;;;;;;;51.50;46.50;;;11.30;69.50;;;;;;5094616;28;20450;-72
2022/03/18 11:01:20;;;;;;;52.20;47.20;;;11.40;69.30;;;;;;5094212;28;20450;-72
2022/03/18 11:03:47;;;;;;;50.10;45.33;;;11.50;69.20;;;;;;5094307;28;20960;-72
2022/03/18 11:06:17;;;;;;;49.67;45.17;;;11.50;69.50;;;;;;5093927;28;20452;-72
2022/03/18 11:08:46;;;;;;;56.03;50.37;;;11.60;69.50;;;;;;5094121;28;20474;-72
2022/03/18 11:11:18;;;;;;;51.97;47.27;;;11.70;68.80;;;;;;5093788;28;20579;-72
2022/03/18 11:13:50;;;;;;;50.43;45.70;;;11.70;68.50;;;;;;5094081;28;20489;-72
2022/03/18 11:16:23;;;;;;;50.70;46.47;;;11.60;68.50;;;;;;5093920;28;20457;-72
2022/03/18 11:18:50;;;;;;;52.13;47.40;;;11.80;68.30;;;;;;5093763;28;20457;-72
2022/03/18 11:21:21;;;;;;;52.93;48.00;;;11.70;68.60;;;;;;5093700;28;20458;-72
2022/03/18 11:23:48;;;;;;;52.40;47.60;;;11.70;68.70;;;;;;5093996;28;20473;-72
2022/03/18 11:26:17;;;;;;;53.20;48.20;;;11.80;68.50;;;;;;5093794;28;20522;-72
2022/03/18 11:28:45;;;;;;;52.27;46.90;;;11.70;69.30;;;;;;5093611;28;20480;-72
2022/03/18 11:31:17;;;;;;;52.20;47.30;;;11.80;68.80;;;;;;5093307;28;20523;-72
2022/03/18 11:34:10;;;;;;;53.97;49.07;;;11.80;68.80;;;;;;5093515;28;20966;-72
2022/03/18 11:36:38;;;;;;;48.73;44.63;;;12.00;68.90;;;;;;5093670;28;20545;-72
2022/03/18 11:39:07;;;;;;;51.53;46.93;;;12.00;68.60;;;;;;5093503;28;20825;-72
2022/03/18 11:41:50;;;;;;;52.57;47.93;;;12.00;68.60;;;;;;5093455;28;20568;-72
2022/03/18 11:44:40;;;;;;;53.03;47.93;;;12.00;68.70;;;;;;5093510;28;20516;-72
2022/03/18 11:47:36;;;;;;;49.53;45.23;;;12.00;69.00;;;;;;5093464;28;20452;-72
2022/03/18 11:50:39;;;;;;;51.70;47.00;;;12.00;69.10;;;;;;5091369;28;20519;-72
2022/03/18 11:53:07;;;;;;;51.50;46.47;;;11.90;69.10;;;;;;5093340;28;21023;-73
2022/03/18 11:55:34;;;;;;;52.60;47.93;;;11.80;69.40;;;;;;5093157;28;20460;-73
2022/03/18 11:58:01;;;;;;;51.93;47.17;;;11.60;70.30;;;;;;5093290;28;20501;-73
2022/03/18 12:00:43;;;;;;;53.53;48.50;;;11.80;69.70;;;;;;5092839;28;20509;-72
2022/03/18 12:03:19;;;;;;;48.73;44.40;;;11.80;69.30;;;;;;5093213;28;20538;-73
2022/03/18 12:05:55;;;;;;;53.13;48.33;;;11.90;68.90;;;;;;5093298;28;20453;-72
2022/03/18 12:08:55;;;;;;;51.20;46.50;;;12.00;68.40;;;;;;5093109;28;20467;-73
2022/03/18 12:11:30;;;;;;;51.73;46.73;;;12.10;68.30;;;;;;5092852;28;20512;-71
2022/03/18 12:13:57;;;;;;;53.20;48.30;;;12.10;68.30;;;;;;5093162;28;20447;-71
2022/03/18 12:16:27;;;;;;;53.50;48.30;;;12.30;67.90;;;;;;5092926;28;20461;-71
2022/03/18 12:18:59;;;;;;;54.33;49.60;;;12.30;67.70;;;;;;5092832;28;20462;-71
2022/03/18 12:21:35;;;;;;;54.30;49.40;;;12.30;67.30;;;;;;5092588;28;20459;-73
2022/03/18 12:24:04;;;;;;;52.70;47.57;;;12.40;67.30;;;;;;5093167;28;20454;-71
2022/03/18 12:26:31;;;;;;;53.27;48.43;;;12.30;67.30;;;;;;5092822;28;20972;-72
2022/03/18 12:28:58;;;;;;;53.10;48.40;;;12.20;68.20;;;;;;5092796;28;20453;-71
2022/03/18 12:31:25;;;;;;;52.13;47.70;;;12.10;68.10;;;;;;5092464;28;20501;-71
2022/03/18 12:33:57;;;;;;;53.60;48.80;;;12.10;68.60;;;;;;5092881;28;20482;-71
2022/03/18 12:36:28;;;;;;;52.97;48.23;;;12.40;67.50;;;;;;5092846;28;20514;-71
2022/03/18 12:39:14;;;;;;;51.77;46.87;;;12.60;66.80;;;;;;5092862;28;20940;-71
2022/03/18 12:41:42;;;;;;;53.37;48.43;;;12.60;66.70;;;;;;5092612;28;20522;-72
2022/03/18 12:44:11;;;;;;;53.97;49.10;;;12.60;66.20;;;;;;5092801;28;20444;-72
2022/03/18 12:46:41;;;;;;;53.13;48.40;;;12.60;66.40;;;;;;5096788;28;20455;-72
2022/03/18 12:49:11;;;;;;;51.63;47.10;;;12.40;67.00;;;;;;5096723;28;20491;-72
2022/03/18 12:51:38;;;;;;;54.83;49.70;;;12.50;66.50;;;;;;5096796;28;20487;-72
2022/03/18 12:54:06;;;;;;;50.90;46.37;;;12.70;65.80;;;;;;5096733;28;20467;-71
2022/03/18 12:56:35;;;;;;;53.47;48.67;;;12.50;66.10;;;;;;5096418;28;20449;-71
2022/03/18 12:59:03;;;;;;;52.40;47.40;;;12.60;65.90;;;;;;5096455;28;20814;-71
2022/03/18 13:01:30;;;;;;;53.23;48.27;;;12.90;65.20;;;;;;5096450;28;20589;-72